createdAt,value
2022-09-04T00:00:33.595Z,101425.47
2022-09-04T00:03:27.112Z,101419.78
2022-09-04T00:05:59.495Z,101419.63
2022-09-04T00:08:50.307Z,101401.88
2022-09-04T00:11:34.378Z,101419.28
2022-09-04T00:14:08.232Z,101414.94
2022-09-04T00:16:45.331Z,101405.44
2022-09-04T00:19:28.846Z,101405.78
2022-09-04T00:22:01.208Z,101429.81
2022-09-04T00:24:36.444Z,101429.81
2022-09-04T00:27:13.301Z,101430.50
2022-09-04T00:29:55.487Z,101431.09
2022-09-04T00:32:39.743Z,101420.72
2022-09-04T00:35:17.407Z,101435.53
2022-09-04T00:37:54.336Z,101434.91
2022-09-04T00:40:31.486Z,101437.56
2022-09-04T00:43:28.241Z,101434.91
2022-09-04T00:46:22.138Z,101443.06
2022-09-04T00:49:30.168Z,101412.91
2022-09-04T00:52:17.276Z,101445.41
2022-09-04T00:55:05.570Z,101444.56
2022-09-04T00:58:02.320Z,101449.34
2022-09-04T01:00:30.805Z,101453.31
2022-09-04T01:03:32.786Z,101448.59
2022-09-04T01:06:21.872Z,101459.78
2022-09-04T01:09:42.434Z,101460.44
2022-09-04T01:12:28.914Z,101464.09
2022-09-04T01:15:15.547Z,101455.63
2022-09-04T01:18:01.140Z,101461.78
2022-09-04T01:21:06.523Z,101462.63
2022-09-04T01:24:17.536Z,101463.09
2022-09-04T01:26:57.409Z,101462.50
2022-09-04T01:29:39.841Z,101466.19
2022-09-04T01:32:17.750Z,101460.38
2022-09-04T01:34:59.651Z,101462.63
2022-09-04T01:37:47.534Z,101466.50
2022-09-04T01:40:42.240Z,101466.19
2022-09-04T01:43:17.561Z,101463.00
2022-09-04T01:46:23.584Z,101469.94
2022-09-04T01:49:04.035Z,101469.00
2022-09-04T01:51:41.231Z,101464.28
2022-09-04T01:54:26.837Z,101431.88
2022-09-04T01:57:14.660Z,101466.09
2022-09-04T02:00:09.183Z,101451.41
2022-09-04T02:03:02.248Z,101470.06
2022-09-04T02:05:45.725Z,101465.13
2022-09-04T02:08:50.791Z,101466.50
2022-09-04T02:11:27.777Z,101463.13
2022-09-04T02:14:17.775Z,101466.47
2022-09-04T02:17:02.858Z,101455.44
2022-09-04T02:19:45.271Z,101465.41
2022-09-04T02:22:29.735Z,101456.75
2022-09-04T02:25:11.000Z,101463.75
2022-09-04T02:27:53.625Z,101464.91
2022-09-04T02:30:22.209Z,101467.47
2022-09-04T02:33:06.150Z,101466.91
2022-09-04T02:35:42.213Z,101470.06
2022-09-04T02:38:26.910Z,101465.53
2022-09-04T02:41:04.989Z,101460.38
2022-09-04T02:43:57.550Z,101468.63
2022-09-04T02:46:42.571Z,101465.06
2022-09-04T02:49:26.027Z,101473.06
2022-09-04T02:52:13.952Z,101465.75
2022-09-04T02:55:04.874Z,101471.50
2022-09-04T02:57:57.242Z,101463.81
2022-09-04T03:00:41.892Z,101467.16
2022-09-04T03:03:19.421Z,101466.53
2022-09-04T03:06:01.712Z,101463.41
2022-09-04T03:08:40.601Z,101460.69
2022-09-04T03:11:18.297Z,101460.69
2022-09-04T03:13:55.711Z,101458.75
2022-09-04T03:16:33.811Z,101455.50
2022-09-04T03:19:17.072Z,101466.81
2022-09-04T03:21:55.570Z,101478.38
2022-09-04T03:24:30.948Z,101476.53
2022-09-04T03:27:08.251Z,101476.25
2022-09-04T03:29:48.404Z,101478.19
2022-09-04T03:32:25.956Z,101475.91
2022-09-04T03:35:03.920Z,101484.31
2022-09-04T03:37:53.710Z,101462.50
2022-09-04T03:40:38.582Z,101478.88
2022-09-04T03:43:36.841Z,101490.63
2022-09-04T03:46:27.769Z,101488.94
2022-09-04T03:49:13.688Z,101492.44
2022-09-04T03:52:00.288Z,101484.50
2022-09-04T03:54:51.168Z,101483.63
2022-09-04T03:57:44.094Z,101492.41
2022-09-04T04:00:18.295Z,101487.97
2022-09-04T04:03:17.748Z,101494.34
2022-09-04T04:05:57.660Z,101497.66
2022-09-04T04:08:43.317Z,101497.16
2022-09-04T04:11:43.330Z,101500.53
2022-09-04T04:14:38.290Z,101493.78
2022-09-04T04:17:31.465Z,101495.84
2022-09-04T04:20:24.610Z,101505.75
2022-09-04T04:23:17.671Z,101499.97
2022-09-04T04:26:11.189Z,101504.94
2022-09-04T04:29:11.531Z,101508.03
2022-09-04T04:32:13.649Z,101506.34
2022-09-04T04:34:58.976Z,101515.31
2022-09-04T04:37:44.525Z,101520.44
2022-09-04T04:40:28.511Z,101514.41
2022-09-04T04:43:06.548Z,101509.84
2022-09-04T04:45:51.602Z,101506.09
2022-09-04T04:49:08.615Z,101514.59
2022-09-04T04:52:04.795Z,101516.28
2022-09-04T04:54:59.169Z,101528.22
2022-09-04T04:57:42.376Z,101532.31
2022-09-04T05:00:22.829Z,101520.69
2022-09-04T05:03:15.097Z,101548.56
2022-09-04T05:06:04.041Z,101549.53
2022-09-04T05:08:46.165Z,101550.94
2022-09-04T05:11:30.685Z,101564.75
2022-09-04T05:14:18.486Z,101552.16
2022-09-04T05:16:56.364Z,101568.06
2022-09-04T05:19:37.524Z,101568.13
2022-09-04T05:22:16.111Z,101566.72
2022-09-04T05:25:06.033Z,101582.38
2022-09-04T05:28:01.530Z,101588.00
2022-09-04T05:30:44.084Z,101577.06
2022-09-04T05:33:22.610Z,101581.31
2022-09-04T05:36:02.288Z,101580.94
2022-09-04T05:38:41.298Z,101592.38
2022-09-04T05:41:31.364Z,101602.97
2022-09-04T05:44:20.129Z,101607.19
2022-09-04T05:47:10.016Z,101608.06
2022-09-04T05:49:56.751Z,101612.34
2022-09-04T05:52:46.054Z,101611.22
2022-09-04T05:55:50.109Z,101616.56
2022-09-04T05:58:49.009Z,101619.88
2022-09-04T06:01:52.219Z,101624.50
2022-09-04T06:04:59.746Z,101630.59
2022-09-04T06:07:41.797Z,101629.78
2022-09-04T06:10:20.527Z,101625.53
2022-09-04T06:13:24.928Z,101625.94
2022-09-04T06:16:15.934Z,101628.81
2022-09-04T06:19:04.370Z,101631.81
2022-09-04T06:22:08.025Z,101629.69
2022-09-04T06:25:13.659Z,101630.69
2022-09-04T06:28:26.753Z,101632.63
2022-09-04T06:31:14.671Z,101640.56
2022-09-04T06:34:01.951Z,101639.09
2022-09-04T06:36:52.997Z,101620.19
2022-09-04T06:39:58.501Z,101634.91
2022-09-04T06:42:53.012Z,101643.88
2022-09-04T06:45:43.208Z,101633.88
2022-09-04T06:48:30.394Z,101641.28
2022-09-04T06:51:18.114Z,101651.78
2022-09-04T06:54:05.850Z,101649.44
2022-09-04T06:57:04.896Z,101649.53
2022-09-04T07:00:07.522Z,101657.41
2022-09-04T07:03:11.597Z,101661.34
2022-09-04T07:05:53.786Z,101667.28
2022-09-04T07:08:45.092Z,101672.97
2022-09-04T07:11:33.435Z,101664.84
2022-09-04T07:14:36.108Z,101666.47
2022-09-04T07:17:18.670Z,101670.63
2022-09-04T07:20:22.104Z,101660.84
2022-09-04T07:23:11.951Z,101668.28
2022-09-04T07:25:49.556Z,101671.59
2022-09-04T07:28:58.109Z,101674.50
2022-09-04T07:31:36.051Z,101673.88
2022-09-04T07:34:17.437Z,101667.28
2022-09-04T07:36:57.175Z,101651.34
2022-09-04T07:39:38.581Z,101668.69
2022-09-04T07:42:16.962Z,101663.97
2022-09-04T07:44:56.236Z,101642.78
2022-09-04T07:47:35.468Z,101690.84
2022-09-04T07:50:17.106Z,101684.22
2022-09-04T07:53:11.264Z,101664.72
2022-09-04T07:55:43.280Z,101683.47
2022-09-04T07:58:46.347Z,101694.22
2022-09-04T08:01:44.233Z,101696.75
2022-09-04T08:04:50.088Z,101684.63
2022-09-04T08:07:48.705Z,101699.97
2022-09-04T08:10:32.383Z,101703.75
2022-09-04T08:13:22.933Z,101699.75
2022-09-04T08:16:06.108Z,101704.00
2022-09-04T08:18:58.763Z,101700.53
2022-09-04T08:21:31.977Z,101696.34
2022-09-04T08:24:33.326Z,101689.78
2022-09-04T08:27:19.926Z,101698.78
2022-09-04T08:30:08.454Z,101699.81
2022-09-04T08:33:24.895Z,101700.72
2022-09-04T08:36:04.440Z,101703.09
2022-09-04T08:39:07.045Z,101698.56
2022-09-04T08:42:20.001Z,101700.53
2022-09-04T08:45:26.777Z,101692.34
2022-09-04T08:48:47.395Z,101690.94
2022-09-04T08:52:00.375Z,101701.31
2022-09-04T08:55:44.512Z,101696.97
2022-09-04T08:59:16.746Z,101705.53
2022-09-04T09:02:41.105Z,101706.06
2022-09-04T09:05:47.093Z,101704.88
2022-09-04T09:08:41.879Z,101703.00
2022-09-04T09:12:27.406Z,101701.63
2022-09-04T09:15:40.070Z,101704.63
2022-09-04T09:18:37.045Z,101696.09
2022-09-04T09:21:13.146Z,101694.66
2022-09-04T09:24:10.164Z,101690.78
2022-09-04T09:27:06.882Z,101691.00
2022-09-04T09:30:07.830Z,101690.72
2022-09-04T09:33:21.723Z,101694.34
2022-09-04T09:36:44.375Z,101686.06
2022-09-04T09:39:46.760Z,101707.25
2022-09-04T09:43:00.876Z,101690.44
2022-09-04T09:46:45.480Z,101699.06
2022-09-04T09:50:02.288Z,101692.44
2022-09-04T09:53:28.825Z,101689.69
2022-09-04T09:56:40.084Z,101692.44
2022-09-04T10:00:07.244Z,101700.66
2022-09-04T10:03:37.331Z,101692.44
2022-09-04T10:06:53.865Z,101691.69
2022-09-04T10:10:17.336Z,101692.09
2022-09-04T10:13:27.578Z,101688.94
2022-09-04T10:16:35.438Z,101691.28
2022-09-04T10:19:46.398Z,101694.81
2022-09-04T10:23:10.784Z,101701.44
2022-09-04T10:26:23.624Z,101701.06
2022-09-04T10:29:44.774Z,101691.28
2022-09-04T10:32:47.248Z,101698.72
2022-09-04T10:35:25.352Z,101701.78
2022-09-04T10:38:25.721Z,101705.69
2022-09-04T10:41:29.441Z,101689.28
2022-09-04T10:44:31.701Z,101699.03
2022-09-04T10:47:14.276Z,101703.34
2022-09-04T10:50:12.790Z,101708.06
2022-09-04T10:53:15.741Z,101702.38
2022-09-04T10:56:23.378Z,101698.50
2022-09-04T10:59:21.263Z,101707.19
2022-09-04T11:02:34.103Z,101709.97
2022-09-04T11:05:37.807Z,101699.34
2022-09-04T11:08:42.829Z,101694.16
2022-09-04T11:11:54.831Z,101705.91
2022-09-04T11:15:06.116Z,101699.66
2022-09-04T11:18:07.415Z,101704.78
2022-09-04T11:21:29.215Z,101691.84
2022-09-04T11:25:04.353Z,101692.72
2022-09-04T11:28:07.700Z,101702.66
2022-09-04T11:31:05.943Z,101694.00
2022-09-04T11:34:22.295Z,101697.16
2022-09-04T11:37:26.694Z,101687.16
2022-09-04T11:40:36.127Z,101689.97
2022-09-04T11:43:39.066Z,101675.09
2022-09-04T11:46:47.858Z,101681.25
2022-09-04T11:49:43.573Z,101673.78
2022-09-04T11:52:26.409Z,101673.19
2022-09-04T11:55:35.366Z,101674.84
2022-09-04T11:58:40.366Z,101663.22
2022-09-04T12:01:47.962Z,101663.56
2022-09-04T12:04:41.884Z,101666.03
2022-09-04T12:07:39.345Z,101665.19
2022-09-04T12:10:42.403Z,101667.25
2022-09-04T12:14:12.134Z,101671.16
2022-09-04T12:17:01.511Z,101661.97
2022-09-04T12:20:09.340Z,101670.44
2022-09-04T12:23:17.281Z,101664.63
2022-09-04T12:26:33.830Z,101644.50
2022-09-04T12:29:50.415Z,101656.06
2022-09-04T12:33:18.469Z,101650.13
2022-09-04T12:36:59.293Z,101654.66
2022-09-04T12:40:22.069Z,101666.72
2022-09-04T12:43:01.153Z,101663.75
2022-09-04T12:45:46.513Z,101659.53
2022-09-04T12:48:34.807Z,101676.63
2022-09-04T12:51:13.845Z,101672.19
2022-09-04T12:53:59.785Z,101659.97
2022-09-04T12:56:49.311Z,101663.56
2022-09-04T13:00:01.631Z,101652.72
2022-09-04T13:02:57.197Z,101664.44
2022-09-04T13:05:52.948Z,101658.25
2022-09-04T13:08:42.626Z,101652.75
2022-09-04T13:11:32.715Z,101661.88
2022-09-04T13:14:29.905Z,101660.16
2022-09-04T13:17:09.508Z,101661.25
2022-09-04T13:19:52.326Z,101664.41
2022-09-04T13:22:34.881Z,101674.59
2022-09-04T13:25:16.125Z,101670.34
2022-09-04T13:28:05.096Z,101662.84
2022-09-04T13:30:46.232Z,101672.53
2022-09-04T13:33:39.740Z,101668.06
2022-09-04T13:36:28.157Z,101670.31
2022-09-04T13:39:32.496Z,101667.88
2022-09-04T13:42:28.398Z,101667.31
2022-09-04T13:45:05.584Z,101662.56
2022-09-04T13:47:46.105Z,101663.84
2022-09-04T13:50:25.951Z,101677.59
2022-09-04T13:53:03.614Z,101681.53
2022-09-04T13:55:39.201Z,101680.69
2022-09-04T13:58:16.889Z,101674.50
2022-09-04T14:00:49.469Z,101667.16
2022-09-04T14:03:34.418Z,101668.28
2022-09-04T14:06:05.501Z,101675.03
2022-09-04T14:08:37.129Z,101678.31
2022-09-04T14:11:45.378Z,101672.47
2022-09-04T14:14:59.653Z,101673.06
2022-09-04T14:17:39.251Z,101674.22
2022-09-04T14:20:22.564Z,101678.66
2022-09-04T14:23:09.006Z,101685.31
2022-09-04T14:25:51.121Z,101665.09
2022-09-04T14:28:31.419Z,101676.34
2022-09-04T14:31:13.679Z,101672.91
2022-09-04T14:33:55.966Z,101671.50
2022-09-04T14:36:38.967Z,101676.25
2022-09-04T14:39:27.510Z,101677.94
2022-09-04T14:42:28.465Z,101681.47
2022-09-04T14:45:19.142Z,101678.09
2022-09-04T14:47:55.350Z,101681.41
2022-09-04T14:50:30.287Z,101678.38
2022-09-04T14:53:04.715Z,101685.19
2022-09-04T14:55:37.523Z,101682.34
2022-09-04T14:58:19.677Z,101686.06
2022-09-04T15:01:04.093Z,101694.00
2022-09-04T15:03:38.505Z,101684.72
2022-09-04T15:06:19.370Z,101676.25
2022-09-04T15:08:51.544Z,101668.69
2022-09-04T15:11:31.945Z,101679.09
2022-09-04T15:14:12.409Z,101676.25
2022-09-04T15:16:50.628Z,101673.28
2022-09-04T15:19:40.903Z,101672.44
2022-09-04T15:22:20.386Z,101672.13
2022-09-04T15:24:59.477Z,101648.63
2022-09-04T15:27:43.969Z,101673.72
2022-09-04T15:30:24.557Z,101671.50
2022-09-04T15:33:06.457Z,101678.94
2022-09-04T15:35:36.323Z,101683.34
2022-09-04T15:38:20.579Z,101676.50
2022-09-04T15:41:16.686Z,101681.28
2022-09-04T15:43:51.802Z,101688.53
2022-09-04T15:46:42.023Z,101688.03
2022-09-04T15:49:27.931Z,101685.38
2022-09-04T15:52:12.642Z,101674.66
2022-09-04T15:55:06.436Z,101692.69
2022-09-04T15:57:52.373Z,101688.94
2022-09-04T16:00:26.510Z,101685.97
2022-09-04T16:03:12.041Z,101693.66
2022-09-04T16:05:47.673Z,101695.19
2022-09-04T16:08:28.105Z,101680.47
2022-09-04T16:11:03.577Z,101681.94
2022-09-04T16:13:48.486Z,101703.03
2022-09-04T16:16:24.876Z,101708.00
2022-09-04T16:19:12.721Z,101709.47
2022-09-04T16:21:59.944Z,101703.72
2022-09-04T16:24:36.517Z,101694.66
2022-09-04T16:27:12.463Z,101711.78
2022-09-04T16:29:51.087Z,101706.50
2022-09-04T16:32:27.178Z,101706.72
2022-09-04T16:35:03.653Z,101703.72
2022-09-04T16:37:42.410Z,101717.59
2022-09-04T16:40:29.212Z,101712.81
2022-09-04T16:43:12.023Z,101712.16
2022-09-04T16:45:52.079Z,101717.97
2022-09-04T16:48:33.969Z,101721.44
2022-09-04T16:51:40.606Z,101724.16
2022-09-04T16:54:11.481Z,101733.63
2022-09-04T16:56:45.550Z,101712.59
2022-09-04T16:59:26.113Z,101742.41
2022-09-04T17:02:02.868Z,101744.00
2022-09-04T17:04:41.920Z,101736.19
2022-09-04T17:07:21.614Z,101745.16
2022-09-04T17:10:06.943Z,101741.75
2022-09-04T17:12:55.091Z,101742.91
2022-09-04T17:15:39.839Z,101747.59
2022-09-04T17:18:27.635Z,101751.16
2022-09-04T17:26:04.892Z,101749.97
2022-09-04T17:29:01.514Z,101756.66
2022-09-04T17:29:12.647Z,101760.22
2022-09-04T17:30:00.286Z,101749.22
2022-09-04T17:37:09.916Z,101756.66
2022-09-04T17:40:39.588Z,101761.81
2022-09-04T17:40:43.404Z,101764.13
2022-09-04T17:41:50.664Z,101763.78
2022-09-04T17:44:43.322Z,101749.25
2022-09-04T17:47:30.867Z,101773.94
2022-09-04T17:50:01.331Z,101770.84
2022-09-04T17:52:34.338Z,101778.25
2022-09-04T17:55:08.317Z,101783.34
2022-09-04T17:58:00.017Z,101784.13
2022-09-04T18:00:38.651Z,101779.41
2022-09-04T18:03:26.547Z,101779.41
2022-09-04T18:06:06.381Z,101784.13
2022-09-04T18:08:43.540Z,101791.91
2022-09-04T18:11:23.554Z,101796.63
2022-09-04T18:14:02.501Z,101799.31
2022-09-04T18:17:11.299Z,101805.56
2022-09-04T18:19:46.467Z,101790.63
2022-09-04T18:22:32.006Z,101808.66
2022-09-04T18:25:16.154Z,101802.75
2022-09-04T18:28:11.379Z,101805.03
2022-09-04T18:37:12.900Z,101808.22
2022-09-04T18:37:23.395Z,101824.50
2022-09-04T18:37:24.739Z,101799.78
2022-09-04T18:40:08.656Z,101817.47
2022-09-04T18:50:20.205Z,101823.69
2022-09-04T18:50:37.649Z,101819.28
2022-09-04T18:50:50.180Z,101831.00
2022-09-04T18:51:51.088Z,101843.53
2022-09-04T18:54:29.766Z,101841.50
2022-09-04T18:57:06.892Z,101841.03
2022-09-04T18:59:43.477Z,101854.34
2022-09-04T19:02:22.272Z,101850.13
2022-09-04T19:04:57.965Z,101851.63
2022-09-04T19:07:32.742Z,101845.66
2022-09-04T19:10:17.465Z,101839.69
2022-09-04T19:13:02.961Z,101842.06
2022-09-04T19:15:48.812Z,101852.16
2022-09-04T19:18:27.692Z,101853.75
2022-09-04T19:21:24.138Z,101839.16
2022-09-04T19:23:59.638Z,101844.94
2022-09-04T19:26:40.145Z,101843.41
2022-09-04T19:29:20.465Z,101851.94
2022-09-04T19:32:00.641Z,101846.09
2022-09-04T19:34:41.387Z,101841.16
2022-09-04T19:38:33.920Z,101857.63
2022-09-04T19:45:56.492Z,101851.78
2022-09-04T19:46:03.819Z,101840.53
2022-09-04T19:46:31.012Z,101853.25
2022-09-04T19:52:20.946Z,101840.09
2022-09-04T19:53:40.658Z,101858.16
2022-09-04T19:55:24.947Z,101856.81
2022-09-04T19:58:07.186Z,101855.22
2022-09-04T20:00:44.378Z,101857.22
2022-09-04T20:03:29.448Z,101850.63
2022-09-04T20:06:19.944Z,101862.81
2022-09-04T20:09:00.041Z,101849.50
2022-09-04T20:11:36.653Z,101871.34
2022-09-04T20:14:20.839Z,101860.53
2022-09-04T20:17:09.129Z,101861.38
2022-09-04T20:19:44.933Z,101845.63
2022-09-04T20:22:31.240Z,101864.63
2022-09-04T20:25:27.877Z,101866.53
2022-09-04T20:28:08.655Z,101881.13
2022-09-04T20:30:42.811Z,101872.69
2022-09-04T20:33:20.760Z,101877.19
2022-09-04T20:35:59.703Z,101888.69
2022-09-04T20:38:41.035Z,101879.34
2022-09-04T20:41:22.256Z,101884.03
2022-09-04T20:44:03.442Z,101886.63
2022-09-04T20:52:44.347Z,101883.69
2022-09-04T20:52:58.848Z,101884.38
2022-09-04T20:53:12.264Z,101885.91
2022-09-04T20:55:58.855Z,101889.31
2022-09-04T21:03:06.398Z,101889.31
2022-09-04T21:03:22.929Z,101898.59
2022-09-04T21:05:56.977Z,101903.41
2022-09-04T21:08:41.004Z,101906.97
2022-09-04T21:11:40.514Z,101905.69
2022-09-04T21:14:14.463Z,101909.66
2022-09-04T21:17:34.284Z,101908.94
2022-09-04T21:20:38.965Z,101906.72
2022-09-04T21:24:10.227Z,101908.63
2022-09-04T21:27:16.843Z,101921.78
2022-09-04T21:30:06.759Z,101915.34
2022-09-04T21:33:04.100Z,101924.13
2022-09-04T21:35:54.748Z,101916.69
2022-09-04T21:38:52.134Z,101922.00
2022-09-04T21:41:50.769Z,101922.47
2022-09-04T21:44:52.371Z,101915.63
2022-09-04T21:47:50.958Z,101925.81
2022-09-04T21:51:04.195Z,101917.66
2022-09-04T21:54:09.961Z,101925.56
2022-09-04T22:02:35.217Z,101922.50
2022-09-04T22:02:35.693Z,101930.59
2022-09-04T22:04:15.439Z,101931.91
2022-09-04T22:13:02.787Z,101940.16
2022-09-04T22:13:43.500Z,101945.47
2022-09-04T22:13:44.167Z,101941.59
2022-09-04T22:16:32.757Z,101948.09
2022-09-04T22:19:49.016Z,101940.34
2022-09-04T22:22:48.513Z,101960.72
2022-09-04T22:25:45.540Z,101949.81
2022-09-04T22:28:52.840Z,101952.00
2022-09-04T22:32:22.838Z,101939.13
2022-09-04T22:35:55.994Z,101953.63
2022-09-04T22:38:55.745Z,101932.50
2022-09-04T22:42:06.950Z,101950.66
2022-09-04T22:45:09.718Z,101952.00
2022-09-04T22:48:05.269Z,101961.03
2022-09-04T22:50:53.162Z,101959.47
2022-09-04T22:53:52.050Z,101958.09
2022-09-04T22:56:38.047Z,101957.16
2022-09-04T22:59:31.035Z,101956.00
2022-09-04T23:08:08.474Z,101942.66
2022-09-04T23:13:50.738Z,101962.41
2022-09-04T23:14:00.920Z,101964.06
2022-09-04T23:16:40.373Z,101960.19
2022-09-04T23:22:26.758Z,101961.25
2022-09-04T23:26:48.659Z,101952.91
2022-09-04T23:26:49.977Z,101956.25
2022-09-04T23:29:31.236Z,101956.88
2022-09-04T23:32:36.724Z,101960.31
2022-09-04T23:35:17.031Z,101961.00
2022-09-04T23:38:36.109Z,101958.56
2022-09-04T23:41:23.481Z,101953.13
2022-09-04T23:44:40.256Z,101955.56
2022-09-04T23:47:48.561Z,101959.44
2022-09-04T23:50:35.811Z,101956.47
2022-09-04T23:53:24.662Z,101965.31
2022-09-04T23:56:15.735Z,101959.25
2022-09-04T23:59:21.064Z,101972.63
